sensor_id;sensor_type;location;lat;lon;timestamp;temperature;humidity
43089;DHT22;28709;52.030;5.652;2023-04-24T00:00:16;9.50;99.90
43089;DHT22;28709;52.030;5.652;2023-04-24T00:02:43;9.50;99.90
43089;DHT22;28709;52.030;5.652;2023-04-24T00:05:15;9.50;99.90
43089;DHT22;28709;52.030;5.652;2023-04-24T00:07:44;9.60;99.90
43089;DHT22;28709;52.030;5.652;2023-04-24T00:10:11;9.60;99.90
43089;DHT22;28709;52.030;5.652;2023-04-24T00:12:37;9.60;99.90
43089;DHT22;28709;52.030;5.652;2023-04-24T00:15:03;9.60;99.90
43089;DHT22;28709;52.030;5.652;2023-04-24T00:17:29;9.60;99.90
43089;DHT22;28709;52.030;5.652;2023-04-24T00:19:54;9.60;99.90
43089;DHT22;28709;52.030;5.652;2023-04-24T00:22:28;9.60;99.90
43089;DHT22;28709;52.030;5.652;2023-04-24T00:24:54;9.60;99.90
43089;DHT22;28709;52.030;5.652;2023-04-24T00:27:20;9.60;99.90
43089;DHT22;28709;52.030;5.652;2023-04-24T00:29:45;9.60;99.90
43089;DHT22;28709;52.030;5.652;2023-04-24T00:32:11;9.60;99.90
43089;DHT22;28709;52.030;5.652;2023-04-24T00:34:37;9.70;99.90
43089;DHT22;28709;52.030;5.652;2023-04-24T00:37:02;9.60;99.90
43089;DHT22;28709;52.030;5.652;2023-04-24T00:39:28;9.60;99.90
43089;DHT22;28709;52.030;5.652;2023-04-24T00:41:54;9.60;99.90
43089;DHT22;28709;52.030;5.652;2023-04-24T00:44:20;9.60;99.90
43089;DHT22;28709;52.030;5.652;2023-04-24T00:46:46;9.60;99.90
43089;DHT22;28709;52.030;5.652;2023-04-24T00:49:13;9.60;99.90
43089;DHT22;28709;52.030;5.652;2023-04-24T00:51:39;9.60;99.90
43089;DHT22;28709;52.030;5.652;2023-04-24T00:54:06;9.60;99.90
43089;DHT22;28709;52.030;5.652;2023-04-24T00:56:31;9.60;99.90
43089;DHT22;28709;52.030;5.652;2023-04-24T00:58:58;9.60;99.90
43089;DHT22;28709;52.030;5.652;2023-04-24T01:01:24;9.60;99.90
43089;DHT22;28709;52.030;5.652;2023-04-24T01:03:51;9.50;99.90
43089;DHT22;28709;52.030;5.652;2023-04-24T01:06:19;9.50;99.90
43089;DHT22;28709;52.030;5.652;2023-04-24T01:08:46;9.50;99.90
43089;DHT22;28709;52.030;5.652;2023-04-24T01:11:13;9.50;99.90
43089;DHT22;28709;52.030;5.652;2023-04-24T01:13:39;9.50;99.90
43089;DHT22;28709;52.030;5.652;2023-04-24T01:16:06;9.40;99.90
43089;DHT22;28709;52.030;5.652;2023-04-24T01:18:31;9.40;99.90
43089;DHT22;28709;52.030;5.652;2023-04-24T01:20:58;9.40;99.90
43089;DHT22;28709;52.030;5.652;2023-04-24T01:23:25;9.30;99.90
43089;DHT22;28709;52.030;5.652;2023-04-24T01:25:51;9.30;99.90
43089;DHT22;28709;52.030;5.652;2023-04-24T01:28:17;9.30;99.90
43089;DHT22;28709;52.030;5.652;2023-04-24T01:30:43;9.30;99.90
43089;DHT22;28709;52.030;5.652;2023-04-24T01:33:08;9.30;99.90
43089;DHT22;28709;52.030;5.652;2023-04-24T01:35:35;9.30;99.90
43089;DHT22;28709;52.030;5.652;2023-04-24T01:38:02;9.30;99.90
43089;DHT22;28709;52.030;5.652;2023-04-24T01:40:28;9.30;99.90
43089;DHT22;28709;52.030;5.652;2023-04-24T01:42:54;9.30;99.90
43089;DHT22;28709;52.030;5.652;2023-04-24T01:45:20;9.30;99.90
43089;DHT22;28709;52.030;5.652;2023-04-24T01:47:46;9.40;99.90
43089;DHT22;28709;52.030;5.652;2023-04-24T01:50:12;9.40;99.90
43089;DHT22;28709;52.030;5.652;2023-04-24T01:52:37;9.40;99.90
43089;DHT22;28709;52.030;5.652;2023-04-24T01:55:04;9.40;99.90
43089;DHT22;28709;52.030;5.652;2023-04-24T01:57:31;9.40;99.90
43089;DHT22;28709;52.030;5.652;2023-04-24T01:59:57;9.40;99.90
43089;DHT22;28709;52.030;5.652;2023-04-24T02:02:23;9.40;99.90
43089;DHT22;28709;52.030;5.652;2023-04-24T02:04:56;9.50;99.90
43089;DHT22;28709;52.030;5.652;2023-04-24T02:07:22;9.50;99.90
43089;DHT22;28709;52.030;5.652;2023-04-24T02:09:48;9.50;99.90
43089;DHT22;28709;52.030;5.652;2023-04-24T02:12:15;9.50;99.90
43089;DHT22;28709;52.030;5.652;2023-04-24T02:14:40;9.50;99.90
43089;DHT22;28709;52.030;5.652;2023-04-24T02:17:07;9.50;99.90
43089;DHT22;28709;52.030;5.652;2023-04-24T02:19:33;9.50;99.90
43089;DHT22;28709;52.030;5.652;2023-04-24T02:21:59;9.50;99.90
43089;DHT22;28709;52.030;5.652;2023-04-24T02:24:24;9.50;99.90
43089;DHT22;28709;52.030;5.652;2023-04-24T02:26:50;9.50;99.90
43089;DHT22;28709;52.030;5.652;2023-04-24T02:29:16;9.50;99.90
43089;DHT22;28709;52.030;5.652;2023-04-24T02:31:41;9.50;99.90
43089;DHT22;28709;52.030;5.652;2023-04-24T02:34:07;9.50;99.90
43089;DHT22;28709;52.030;5.652;2023-04-24T02:36:33;9.50;99.90
43089;DHT22;28709;52.030;5.652;2023-04-24T02:38:58;9.40;99.90
43089;DHT22;28709;52.030;5.652;2023-04-24T02:41:24;9.40;99.90
43089;DHT22;28709;52.030;5.652;2023-04-24T02:43:50;9.40;99.90
43089;DHT22;28709;52.030;5.652;2023-04-24T02:46:16;9.40;99.90
43089;DHT22;28709;52.030;5.652;2023-04-24T02:48:41;9.40;99.90
43089;DHT22;28709;52.030;5.652;2023-04-24T02:51:07;9.40;99.90
43089;DHT22;28709;52.030;5.652;2023-04-24T02:53:33;9.40;99.90
43089;DHT22;28709;52.030;5.652;2023-04-24T02:55:58;9.50;99.90
43089;DHT22;28709;52.030;5.652;2023-04-24T02:58:24;9.50;99.90
43089;DHT22;28709;52.030;5.652;2023-04-24T03:00:54;9.50;99.90
43089;DHT22;28709;52.030;5.652;2023-04-24T03:03:20;9.50;99.90
43089;DHT22;28709;52.030;5.652;2023-04-24T03:05:46;9.50;99.90
43089;DHT22;28709;52.030;5.652;2023-04-24T03:08:12;9.50;99.90
43089;DHT22;28709;52.030;5.652;2023-04-24T03:10:38;9.50;99.90
43089;DHT22;28709;52.030;5.652;2023-04-24T03:13:03;9.50;99.90
43089;DHT22;28709;52.030;5.652;2023-04-24T03:15:29;9.50;99.90
43089;DHT22;28709;52.030;5.652;2023-04-24T03:17:55;9.50;99.90
43089;DHT22;28709;52.030;5.652;2023-04-24T03:20:21;9.40;99.90
43089;DHT22;28709;52.030;5.652;2023-04-24T03:22:46;9.40;99.90
43089;DHT22;28709;52.030;5.652;2023-04-24T03:25:12;9.30;99.90
43089;DHT22;28709;52.030;5.652;2023-04-24T03:27:38;9.30;99.90
43089;DHT22;28709;52.030;5.652;2023-04-24T03:30:06;9.30;99.90
43089;DHT22;28709;52.030;5.652;2023-04-24T03:32:32;9.30;99.90
43089;DHT22;28709;52.030;5.652;2023-04-24T03:34:57;9.30;99.90
43089;DHT22;28709;52.030;5.652;2023-04-24T03:37:23;9.30;99.90
43089;DHT22;28709;52.030;5.652;2023-04-24T03:39:48;9.30;99.90
43089;DHT22;28709;52.030;5.652;2023-04-24T03:42:14;9.30;99.90
43089;DHT22;28709;52.030;5.652;2023-04-24T03:44:40;9.30;99.90
43089;DHT22;28709;52.030;5.652;2023-04-24T03:47:06;9.20;99.90
43089;DHT22;28709;52.030;5.652;2023-04-24T03:49:31;9.20;99.90
43089;DHT22;28709;52.030;5.652;2023-04-24T03:51:57;9.20;99.90
43089;DHT22;28709;52.030;5.652;2023-04-24T03:54:23;9.20;99.90
43089;DHT22;28709;52.030;5.652;2023-04-24T03:56:48;9.20;99.90
43089;DHT22;28709;52.030;5.652;2023-04-24T03:59:14;9.20;99.90
43089;DHT22;28709;52.030;5.652;2023-04-24T04:01:39;9.20;99.90
43089;DHT22;28709;52.030;5.652;2023-04-24T04:04:08;9.20;99.90
43089;DHT22;28709;52.030;5.652;2023-04-24T04:06:34;9.20;99.90
43089;DHT22;28709;52.030;5.652;2023-04-24T04:09:01;9.10;99.90
43089;DHT22;28709;52.030;5.652;2023-04-24T04:11:27;9.10;99.90
43089;DHT22;28709;52.030;5.652;2023-04-24T04:13:53;9.10;99.90
43089;DHT22;28709;52.030;5.652;2023-04-24T04:16:18;9.00;99.90
43089;DHT22;28709;52.030;5.652;2023-04-24T04:18:44;9.00;99.90
43089;DHT22;28709;52.030;5.652;2023-04-24T04:21:10;9.00;99.90
43089;DHT22;28709;52.030;5.652;2023-04-24T04:23:36;8.90;99.90
43089;DHT22;28709;52.030;5.652;2023-04-24T04:26:02;9.00;99.90
43089;DHT22;28709;52.030;5.652;2023-04-24T04:28:29;9.00;99.90
43089;DHT22;28709;52.030;5.652;2023-04-24T04:30:56;8.90;99.90
43089;DHT22;28709;52.030;5.652;2023-04-24T04:33:23;9.00;99.90
43089;DHT22;28709;52.030;5.652;2023-04-24T04:35:50;8.90;99.90
43089;DHT22;28709;52.030;5.652;2023-04-24T04:38:17;8.90;99.90
43089;DHT22;28709;52.030;5.652;2023-04-24T04:40:44;8.90;99.90
43089;DHT22;28709;52.030;5.652;2023-04-24T04:43:10;8.90;99.90
43089;DHT22;28709;52.030;5.652;2023-04-24T04:45:37;8.90;99.90
43089;DHT22;28709;52.030;5.652;2023-04-24T04:48:04;8.90;99.90
43089;DHT22;28709;52.030;5.652;2023-04-24T04:50:32;8.90;99.90
43089;DHT22;28709;52.030;5.652;2023-04-24T04:52:58;8.90;99.90
43089;DHT22;28709;52.030;5.652;2023-04-24T04:55:24;8.90;99.90
43089;DHT22;28709;52.030;5.652;2023-04-24T04:57:51;9.00;99.90
43089;DHT22;28709;52.030;5.652;2023-04-24T05:00:17;8.90;99.90
43089;DHT22;28709;52.030;5.652;2023-04-24T05:02:43;8.90;99.90
43089;DHT22;28709;52.030;5.652;2023-04-24T05:05:09;8.90;99.90
43089;DHT22;28709;52.030;5.652;2023-04-24T05:07:35;9.00;99.90
43089;DHT22;28709;52.030;5.652;2023-04-24T05:10:01;9.00;99.90
43089;DHT22;28709;52.030;5.652;2023-04-24T05:12:26;9.00;99.90
43089;DHT22;28709;52.030;5.652;2023-04-24T05:14:52;8.90;99.90
43089;DHT22;28709;52.030;5.652;2023-04-24T05:17:18;8.90;99.90
43089;DHT22;28709;52.030;5.652;2023-04-24T05:19:44;8.90;99.90
43089;DHT22;28709;52.030;5.652;2023-04-24T05:22:10;8.90;99.90
43089;DHT22;28709;52.030;5.652;2023-04-24T05:24:37;8.90;99.90
43089;DHT22;28709;52.030;5.652;2023-04-24T05:27:03;8.90;99.90
43089;DHT22;28709;52.030;5.652;2023-04-24T05:29:33;8.90;99.90
43089;DHT22;28709;52.030;5.652;2023-04-24T05:31:59;8.90;99.90
43089;DHT22;28709;52.030;5.652;2023-04-24T05:34:25;8.90;99.90
43089;DHT22;28709;52.030;5.652;2023-04-24T05:36:51;8.90;99.90
43089;DHT22;28709;52.030;5.652;2023-04-24T05:39:17;8.90;99.90
43089;DHT22;28709;52.030;5.652;2023-04-24T05:41:43;8.90;99.90
43089;DHT22;28709;52.030;5.652;2023-04-24T05:44:09;9.00;99.90
43089;DHT22;28709;52.030;5.652;2023-04-24T05:46:35;9.10;99.90
43089;DHT22;28709;52.030;5.652;2023-04-24T05:49:00;9.10;99.90
43089;DHT22;28709;52.030;5.652;2023-04-24T05:51:26;9.10;99.90
43089;DHT22;28709;52.030;5.652;2023-04-24T05:53:52;9.10;99.90
43089;DHT22;28709;52.030;5.652;2023-04-24T05:56:18;9.10;99.90
43089;DHT22;28709;52.030;5.652;2023-04-24T05:58:44;9.10;99.90
43089;DHT22;28709;52.030;5.652;2023-04-24T06:01:10;9.10;99.90
43089;DHT22;28709;52.030;5.652;2023-04-24T06:03:38;9.10;99.90
43089;DHT22;28709;52.030;5.652;2023-04-24T06:06:05;9.20;99.90
43089;DHT22;28709;52.030;5.652;2023-04-24T06:08:31;9.20;99.90
43089;DHT22;28709;52.030;5.652;2023-04-24T06:10:57;9.30;99.90
43089;DHT22;28709;52.030;5.652;2023-04-24T06:13:22;9.30;99.90
43089;DHT22;28709;52.030;5.652;2023-04-24T06:15:48;9.30;99.90
43089;DHT22;28709;52.030;5.652;2023-04-24T06:18:14;9.30;99.90
43089;DHT22;28709;52.030;5.652;2023-04-24T06:20:40;9.30;99.90
43089;DHT22;28709;52.030;5.652;2023-04-24T06:23:06;9.30;99.90
43089;DHT22;28709;52.030;5.652;2023-04-24T06:25:31;9.30;99.90
43089;DHT22;28709;52.030;5.652;2023-04-24T06:27:57;9.30;99.90
43089;DHT22;28709;52.030;5.652;2023-04-24T06:30:23;9.30;99.90
43089;DHT22;28709;52.030;5.652;2023-04-24T06:32:48;9.30;99.90
43089;DHT22;28709;52.030;5.652;2023-04-24T06:35:14;9.30;99.90
43089;DHT22;28709;52.030;5.652;2023-04-24T06:37:41;9.30;99.90
43089;DHT22;28709;52.030;5.652;2023-04-24T06:40:07;9.20;99.90
43089;DHT22;28709;52.030;5.652;2023-04-24T06:42:33;9.10;99.90
43089;DHT22;28709;52.030;5.652;2023-04-24T06:45:00;9.10;99.90
43089;DHT22;28709;52.030;5.652;2023-04-24T06:47:26;9.10;99.90
43089;DHT22;28709;52.030;5.652;2023-04-24T06:49:52;9.00;99.90
43089;DHT22;28709;52.030;5.652;2023-04-24T06:52:18;9.00;99.90
43089;DHT22;28709;52.030;5.652;2023-04-24T06:54:44;9.00;99.90
43089;DHT22;28709;52.030;5.652;2023-04-24T06:57:10;9.00;99.90
43089;DHT22;28709;52.030;5.652;2023-04-24T06:59:36;9.00;99.90
43089;DHT22;28709;52.030;5.652;2023-04-24T07:02:02;8.90;99.90
43089;DHT22;28709;52.030;5.652;2023-04-24T07:04:28;8.90;99.90
43089;DHT22;28709;52.030;5.652;2023-04-24T07:06:54;8.90;99.90
43089;DHT22;28709;52.030;5.652;2023-04-24T07:09:22;8.90;99.90
43089;DHT22;28709;52.030;5.652;2023-04-24T07:11:49;8.90;99.90
43089;DHT22;28709;52.030;5.652;2023-04-24T07:14:15;8.80;99.90
43089;DHT22;28709;52.030;5.652;2023-04-24T07:16:41;8.70;99.90
43089;DHT22;28709;52.030;5.652;2023-04-24T07:19:07;8.70;99.90
43089;DHT22;28709;52.030;5.652;2023-04-24T07:21:32;8.70;99.90
43089;DHT22;28709;52.030;5.652;2023-04-24T07:23:58;8.70;99.90
43089;DHT22;28709;52.030;5.652;2023-04-24T07:26:25;8.70;99.90
43089;DHT22;28709;52.030;5.652;2023-04-24T07:28:51;8.70;99.90
43089;DHT22;28709;52.030;5.652;2023-04-24T07:31:17;8.60;99.90
43089;DHT22;28709;52.030;5.652;2023-04-24T07:33:42;8.60;99.90
43089;DHT22;28709;52.030;5.652;2023-04-24T07:36:08;8.60;99.90
43089;DHT22;28709;52.030;5.652;2023-04-24T07:38:41;8.60;99.90
43089;DHT22;28709;52.030;5.652;2023-04-24T07:41:07;8.60;99.90
43089;DHT22;28709;52.030;5.652;2023-04-24T07:43:32;8.50;99.90
43089;DHT22;28709;52.030;5.652;2023-04-24T07:45:58;8.50;99.90
43089;DHT22;28709;52.030;5.652;2023-04-24T07:48:24;8.40;99.90
43089;DHT22;28709;52.030;5.652;2023-04-24T07:50:51;8.40;99.90
43089;DHT22;28709;52.030;5.652;2023-04-24T07:53:17;8.30;99.90
43089;DHT22;28709;52.030;5.652;2023-04-24T07:55:43;8.30;99.90
43089;DHT22;28709;52.030;5.652;2023-04-24T07:58:08;8.30;99.90
43089;DHT22;28709;52.030;5.652;2023-04-24T08:00:34;8.30;99.90
43089;DHT22;28709;52.030;5.652;2023-04-24T08:03:00;8.30;99.90
43089;DHT22;28709;52.030;5.652;2023-04-24T08:05:26;8.30;99.90
43089;DHT22;28709;52.030;5.652;2023-04-24T08:07:54;8.20;99.90
43089;DHT22;28709;52.030;5.652;2023-04-24T08:10:21;8.20;99.90
43089;DHT22;28709;52.030;5.652;2023-04-24T08:12:47;8.20;99.90
43089;DHT22;28709;52.030;5.652;2023-04-24T08:15:12;8.20;99.90
43089;DHT22;28709;52.030;5.652;2023-04-24T08:17:38;8.20;99.90
43089;DHT22;28709;52.030;5.652;2023-04-24T08:20:04;8.20;99.90
43089;DHT22;28709;52.030;5.652;2023-04-24T08:22:31;8.20;99.90
43089;DHT22;28709;52.030;5.652;2023-04-24T08:24:59;8.20;99.90
43089;DHT22;28709;52.030;5.652;2023-04-24T08:27:26;8.20;99.90
43089;DHT22;28709;52.030;5.652;2023-04-24T08:29:53;8.30;99.90
43089;DHT22;28709;52.030;5.652;2023-04-24T08:32:19;8.20;99.90
43089;DHT22;28709;52.030;5.652;2023-04-24T08:34:44;8.30;99.90
43089;DHT22;28709;52.030;5.652;2023-04-24T08:37:10;8.30;99.90
43089;DHT22;28709;52.030;5.652;2023-04-24T08:39:37;8.30;99.90
43089;DHT22;28709;52.030;5.652;2023-04-24T08:42:04;8.30;99.90
43089;DHT22;28709;52.030;5.652;2023-04-24T08:44:33;8.30;99.90
43089;DHT22;28709;52.030;5.652;2023-04-24T08:47:00;8.20;99.90
43089;DHT22;28709;52.030;5.652;2023-04-24T08:49:28;8.20;99.90
43089;DHT22;28709;52.030;5.652;2023-04-24T08:51:54;8.10;99.90
43089;DHT22;28709;52.030;5.652;2023-04-24T08:54:20;8.10;99.90
43089;DHT22;28709;52.030;5.652;2023-04-24T08:56:48;8.00;99.90
43089;DHT22;28709;52.030;5.652;2023-04-24T08:59:14;8.10;99.90
43089;DHT22;28709;52.030;5.652;2023-04-24T09:01:40;8.10;99.90
43089;DHT22;28709;52.030;5.652;2023-04-24T09:04:08;8.30;99.90
43089;DHT22;28709;52.030;5.652;2023-04-24T09:06:36;8.30;99.90
43089;DHT22;28709;52.030;5.652;2023-04-24T09:09:02;8.30;99.90
43089;DHT22;28709;52.030;5.652;2023-04-24T09:11:30;8.30;99.90
43089;DHT22;28709;52.030;5.652;2023-04-24T09:13:57;8.30;99.90
43089;DHT22;28709;52.030;5.652;2023-04-24T09:16:25;8.40;99.90
43089;DHT22;28709;52.030;5.652;2023-04-24T09:18:51;8.40;99.90
43089;DHT22;28709;52.030;5.652;2023-04-24T09:21:17;8.50;99.90
43089;DHT22;28709;52.030;5.652;2023-04-24T09:23:43;8.50;99.90
43089;DHT22;28709;52.030;5.652;2023-04-24T09:26:09;8.50;99.90
43089;DHT22;28709;52.030;5.652;2023-04-24T09:28:37;8.50;99.90
43089;DHT22;28709;52.030;5.652;2023-04-24T09:31:09;8.60;99.90
43089;DHT22;28709;52.030;5.652;2023-04-24T09:33:35;8.60;99.90
43089;DHT22;28709;52.030;5.652;2023-04-24T09:36:01;8.70;99.90
43089;DHT22;28709;52.030;5.652;2023-04-24T09:38:35;8.80;99.90
43089;DHT22;28709;52.030;5.652;2023-04-24T09:41:04;8.80;99.90
43089;DHT22;28709;52.030;5.652;2023-04-24T09:43:30;8.80;99.90
43089;DHT22;28709;52.030;5.652;2023-04-24T09:45:57;8.90;99.90
43089;DHT22;28709;52.030;5.652;2023-04-24T09:48:31;8.90;99.90
43089;DHT22;28709;52.030;5.652;2023-04-24T09:50:57;9.00;99.90
43089;DHT22;28709;52.030;5.652;2023-04-24T09:53:26;9.00;99.90
43089;DHT22;28709;52.030;5.652;2023-04-24T09:55:52;9.10;99.90
43089;DHT22;28709;52.030;5.652;2023-04-24T09:58:24;9.30;99.90
43089;DHT22;28709;52.030;5.652;2023-04-24T10:00:50;9.30;99.90
43089;DHT22;28709;52.030;5.652;2023-04-24T10:03:18;9.40;99.90
43089;DHT22;28709;52.030;5.652;2023-04-24T10:05:46;9.50;99.90
43089;DHT22;28709;52.030;5.652;2023-04-24T10:08:12;9.70;99.90
43089;DHT22;28709;52.030;5.652;2023-04-24T10:10:45;9.90;99.90
43089;DHT22;28709;52.030;5.652;2023-04-24T10:13:12;10.10;99.90
43089;DHT22;28709;52.030;5.652;2023-04-24T10:15:39;10.10;99.90
43089;DHT22;28709;52.030;5.652;2023-04-24T10:18:06;10.20;99.90
43089;DHT22;28709;52.030;5.652;2023-04-24T10:20:33;10.30;99.90
43089;DHT22;28709;52.030;5.652;2023-04-24T10:23:00;10.20;99.90
43089;DHT22;28709;52.030;5.652;2023-04-24T10:25:34;10.00;99.90
43089;DHT22;28709;52.030;5.652;2023-04-24T10:28:00;9.70;99.90
43089;DHT22;28709;52.030;5.652;2023-04-24T10:30:34;9.60;99.90
43089;DHT22;28709;52.030;5.652;2023-04-24T10:33:04;9.50;99.90
43089;DHT22;28709;52.030;5.652;2023-04-24T10:35:32;9.40;99.90
43089;DHT22;28709;52.030;5.652;2023-04-24T10:38:42;9.30;99.90
43089;DHT22;28709;52.030;5.652;2023-04-24T10:40:50;9.40;99.90
43089;DHT22;28709;52.030;5.652;2023-04-24T10:43:17;9.70;99.90
43089;DHT22;28709;52.030;5.652;2023-04-24T10:46:03;10.10;99.90
43089;DHT22;28709;52.030;5.652;2023-04-24T10:48:30;10.30;99.90
43089;DHT22;28709;52.030;5.652;2023-04-24T10:50:56;10.20;99.90
43089;DHT22;28709;52.030;5.652;2023-04-24T10:53:29;10.10;99.90
43089;DHT22;28709;52.030;5.652;2023-04-24T10:56:08;9.80;99.90
43089;DHT22;28709;52.030;5.652;2023-04-24T10:58:40;9.60;99.90
43089;DHT22;28709;52.030;5.652;2023-04-24T11:01:06;9.60;99.90
43089;DHT22;28709;52.030;5.652;2023-04-24T11:03:34;9.70;99.90
43089;DHT22;28709;52.030;5.652;2023-04-24T11:06:06;9.80;99.90
43089;DHT22;28709;52.030;5.652;2023-04-24T11:08:42;10.00;99.90
43089;DHT22;28709;52.030;5.652;2023-04-24T11:11:13;10.10;99.90
43089;DHT22;28709;52.030;5.652;2023-04-24T11:19:24;10.50;99.90
43089;DHT22;28709;52.030;5.652;2023-04-24T11:22:02;10.70;99.90
43089;DHT22;28709;52.030;5.652;2023-04-24T11:35:00;11.00;99.90
43089;DHT22;28709;52.030;5.652;2023-04-24T11:37:34;10.90;99.90
43089;DHT22;28709;52.030;5.652;2023-04-24T11:40:00;10.80;99.90
43089;DHT22;28709;52.030;5.652;2023-04-24T11:42:26;10.60;99.90
43089;DHT22;28709;52.030;5.652;2023-04-24T11:44:54;10.50;99.90
43089;DHT22;28709;52.030;5.652;2023-04-24T11:47:28;10.20;99.90
43089;DHT22;28709;52.030;5.652;2023-04-24T11:49:54;10.00;99.90
43089;DHT22;28709;52.030;5.652;2023-04-24T11:52:19;9.60;99.90
43089;DHT22;28709;52.030;5.652;2023-04-24T11:54:49;9.40;99.90
43089;DHT22;28709;52.030;5.652;2023-04-24T11:57:16;9.30;99.90
43089;DHT22;28709;52.030;5.652;2023-04-24T11:59:42;9.30;99.90
43089;DHT22;28709;52.030;5.652;2023-04-24T12:02:07;9.40;99.90
43089;DHT22;28709;52.030;5.652;2023-04-24T12:04:40;9.50;99.90
43089;DHT22;28709;52.030;5.652;2023-04-24T12:07:08;9.60;99.90
43089;DHT22;28709;52.030;5.652;2023-04-24T12:12:08;10.00;99.90
43089;DHT22;28709;52.030;5.652;2023-04-24T12:14:47;10.30;99.90
43089;DHT22;28709;52.030;5.652;2023-04-24T12:17:13;10.60;99.90
43089;DHT22;28709;52.030;5.652;2023-04-24T12:19:48;10.90;99.90
43089;DHT22;28709;52.030;5.652;2023-04-24T12:22:14;11.30;99.90
43089;DHT22;28709;52.030;5.652;2023-04-24T12:24:59;11.50;99.90
43089;DHT22;28709;52.030;5.652;2023-04-24T12:27:26;11.70;99.90
43089;DHT22;28709;52.030;5.652;2023-04-24T12:29:59;11.80;99.90
43089;DHT22;28709;52.030;5.652;2023-04-24T12:32:25;11.80;99.90
43089;DHT22;28709;52.030;5.652;2023-04-24T12:34:52;11.70;99.90
43089;DHT22;28709;52.030;5.652;2023-04-24T12:37:18;11.60;99.90
43089;DHT22;28709;52.030;5.652;2023-04-24T12:42:27;11.20;99.90
43089;DHT22;28709;52.030;5.652;2023-04-24T12:45:00;11.10;99.90
43089;DHT22;28709;52.030;5.652;2023-04-24T12:47:27;11.10;99.90
43089;DHT22;28709;52.030;5.652;2023-04-24T12:49:52;11.20;99.90
43089;DHT22;28709;52.030;5.652;2023-04-24T12:52:37;11.30;99.90
43089;DHT22;28709;52.030;5.652;2023-04-24T12:55:03;11.50;99.90
43089;DHT22;28709;52.030;5.652;2023-04-24T12:57:30;11.70;99.90
43089;DHT22;28709;52.030;5.652;2023-04-24T12:59:58;11.80;99.90
43089;DHT22;28709;52.030;5.652;2023-04-24T13:02:24;11.90;99.90
43089;DHT22;28709;52.030;5.652;2023-04-24T13:04:51;11.80;99.90
43089;DHT22;28709;52.030;5.652;2023-04-24T13:07:17;11.80;99.90
43089;DHT22;28709;52.030;5.652;2023-04-24T13:09:43;11.60;99.90
43089;DHT22;28709;52.030;5.652;2023-04-24T13:12:10;11.40;99.90
43089;DHT22;28709;52.030;5.652;2023-04-24T13:14:37;11.10;99.90
43089;DHT22;28709;52.030;5.652;2023-04-24T13:17:03;11.00;99.90
43089;DHT22;28709;52.030;5.652;2023-04-24T13:19:29;10.80;99.90
43089;DHT22;28709;52.030;5.652;2023-04-24T13:21:56;10.80;99.90
43089;DHT22;28709;52.030;5.652;2023-04-24T13:24:25;10.80;99.90
43089;DHT22;28709;52.030;5.652;2023-04-24T13:26:54;10.70;99.90
43089;DHT22;28709;52.030;5.652;2023-04-24T13:29:22;10.70;99.90
43089;DHT22;28709;52.030;5.652;2023-04-24T13:31:50;10.80;99.90
43089;DHT22;28709;52.030;5.652;2023-04-24T13:34:16;10.80;99.90
43089;DHT22;28709;52.030;5.652;2023-04-24T13:36:42;10.80;99.90
43089;DHT22;28709;52.030;5.652;2023-04-24T13:39:08;10.70;99.90
43089;DHT22;28709;52.030;5.652;2023-04-24T13:41:34;10.70;99.90
43089;DHT22;28709;52.030;5.652;2023-04-24T13:44:00;10.60;99.90
43089;DHT22;28709;52.030;5.652;2023-04-24T13:46:26;10.60;99.90
43089;DHT22;28709;52.030;5.652;2023-04-24T13:48:52;10.80;99.90
43089;DHT22;28709;52.030;5.652;2023-04-24T13:51:18;11.00;99.90
43089;DHT22;28709;52.030;5.652;2023-04-24T13:53:43;11.20;99.90
43089;DHT22;28709;52.030;5.652;2023-04-24T13:56:10;11.60;99.90
43089;DHT22;28709;52.030;5.652;2023-04-24T13:58:37;11.90;99.90
43089;DHT22;28709;52.030;5.652;2023-04-24T14:01:03;12.10;99.90
43089;DHT22;28709;52.030;5.652;2023-04-24T14:03:29;12.10;99.90
43089;DHT22;28709;52.030;5.652;2023-04-24T14:05:55;12.10;99.90
43089;DHT22;28709;52.030;5.652;2023-04-24T14:08:20;12.10;99.90
43089;DHT22;28709;52.030;5.652;2023-04-24T14:10:46;12.10;99.90
43089;DHT22;28709;52.030;5.652;2023-04-24T14:13:12;12.10;99.90
43089;DHT22;28709;52.030;5.652;2023-04-24T14:15:38;12.20;99.90
43089;DHT22;28709;52.030;5.652;2023-04-24T14:18:04;12.20;99.90
43089;DHT22;28709;52.030;5.652;2023-04-24T14:20:30;12.20;99.90
43089;DHT22;28709;52.030;5.652;2023-04-24T14:22:56;12.00;99.90
43089;DHT22;28709;52.030;5.652;2023-04-24T14:25:24;11.90;99.90
43089;DHT22;28709;52.030;5.652;2023-04-24T14:27:50;11.70;99.90
43089;DHT22;28709;52.030;5.652;2023-04-24T14:30:16;11.50;99.90
43089;DHT22;28709;52.030;5.652;2023-04-24T14:32:41;11.40;99.90
43089;DHT22;28709;52.030;5.652;2023-04-24T14:35:07;11.40;99.90
43089;DHT22;28709;52.030;5.652;2023-04-24T14:37:33;11.50;99.90
43089;DHT22;28709;52.030;5.652;2023-04-24T14:39:59;11.50;99.90
43089;DHT22;28709;52.030;5.652;2023-04-24T14:42:24;11.50;99.90
43089;DHT22;28709;52.030;5.652;2023-04-24T14:44:51;11.60;99.90
43089;DHT22;28709;52.030;5.652;2023-04-24T14:47:17;11.60;99.90
43089;DHT22;28709;52.030;5.652;2023-04-24T14:49:43;11.60;99.90
43089;DHT22;28709;52.030;5.652;2023-04-24T14:52:09;11.50;99.90
43089;DHT22;28709;52.030;5.652;2023-04-24T14:54:35;11.50;99.90
43089;DHT22;28709;52.030;5.652;2023-04-24T14:57:01;11.60;99.90
43089;DHT22;28709;52.030;5.652;2023-04-24T14:59:27;11.70;99.90
43089;DHT22;28709;52.030;5.652;2023-04-24T15:01:54;11.80;99.90
43089;DHT22;28709;52.030;5.652;2023-04-24T15:04:23;11.80;99.90
43089;DHT22;28709;52.030;5.652;2023-04-24T15:06:54;11.80;99.90
43089;DHT22;28709;52.030;5.652;2023-04-24T15:09:20;11.80;99.90
43089;DHT22;28709;52.030;5.652;2023-04-24T15:11:47;11.80;99.90
43089;DHT22;28709;52.030;5.652;2023-04-24T15:14:13;11.90;99.90
43089;DHT22;28709;52.030;5.652;2023-04-24T15:16:38;11.80;99.90
43089;DHT22;28709;52.030;5.652;2023-04-24T15:19:04;11.90;99.90
43089;DHT22;28709;52.030;5.652;2023-04-24T15:21:30;11.90;99.90
43089;DHT22;28709;52.030;5.652;2023-04-24T15:23:56;11.70;99.90
43089;DHT22;28709;52.030;5.652;2023-04-24T15:26:23;11.60;99.90
43089;DHT22;28709;52.030;5.652;2023-04-24T15:28:48;11.60;99.90
43089;DHT22;28709;52.030;5.652;2023-04-24T15:31:14;11.60;99.90
43089;DHT22;28709;52.030;5.652;2023-04-24T15:33:40;11.60;99.90
43089;DHT22;28709;52.030;5.652;2023-04-24T15:36:06;11.60;99.90
43089;DHT22;28709;52.030;5.652;2023-04-24T15:38:32;11.60;99.90
43089;DHT22;28709;52.030;5.652;2023-04-24T15:40:57;11.50;99.90
43089;DHT22;28709;52.030;5.652;2023-04-24T15:43:23;11.40;99.90
43089;DHT22;28709;52.030;5.652;2023-04-24T15:45:52;11.40;99.90
43089;DHT22;28709;52.030;5.652;2023-04-24T15:48:18;11.20;99.90
43089;DHT22;28709;52.030;5.652;2023-04-24T15:50:44;10.90;99.90
43089;DHT22;28709;52.030;5.652;2023-04-24T15:53:09;10.60;99.90
43089;DHT22;28709;52.030;5.652;2023-04-24T15:55:35;10.40;99.90
43089;DHT22;28709;52.030;5.652;2023-04-24T15:58:02;10.30;99.90
43089;DHT22;28709;52.030;5.652;2023-04-24T16:00:27;10.20;99.90